Weather at Essex Landing Field [CLOSED]

Public forecast

Using degrees Fahrenheit for public forecast. Weather courtesy of forecast.io.

Closest aviation weather report (METAR) to Essex Landing Field

Closest report is Needles Airport, 29.9 nm (55.4 km) E. Retrieved 2021/06/13 08:56 UTC (59 minutes ago):

KEED 130856Z AUTO 00000KT 10SM CLR 29/M12 A2972 RMK AO2 SLP026 T02891122 51002

Closest aviation forecast (TAF) to Essex Landing Field

Closest forecast is Needles Airport, 29.9 nm (55.4 km) E. Retrieved 2021/06/13 06:22 UTC (4 hours ago):

TAF KEED 130520Z 1306/1406 24009KT P6SM FEW250 FM130900 VRB05KT P6SM FEW250 FM131900 19013G22KT P6SM SKC